Time;durP1;ratioP1;P1;durP2;ratioP2;P2;SDS_P1;SDS_P2;PMS_P1;PMS_P2;Temp;Humidity;BMP_temperature;BMP_pressure;BME280_temperature;BME280_humidity;BME280_pressure;Samples;Min_cycle;Max_cycle;Signal;HPM_P1;HPM_P2
2022/03/07 06:42:46;;;;;;;12.80;9.18;;;;;;;-0.09;47.57;101321.59;6109334;23;20153;-94
2022/03/07 06:45:22;;;;;;;11.63;9.43;;;;;;;-0.05;48.09;101319.91;6189731;23;20021;-95
2022/03/07 06:47:49;;;;;;;13.27;9.40;;;;;;;0.16;48.18;101361.78;6192444;23;20019;-92
2022/03/07 06:50:41;;;;;;;11.75;9.70;;;;;;;-0.15;48.06;101302.41;6200255;23;20009;-92
2022/03/07 06:53:44;;;;;;;13.07;9.88;;;;;;;-0.15;48.62;101292.00;6085031;23;20084;-95
2022/03/07 07:30:25;;;;;;;13.30;10.15;;;;;;;0.91;45.95;101350.34;5640819;22;15954258;-93
2022/03/07 07:32:53;;;;;;;14.13;10.38;;;;;;;0.87;46.24;101338.13;6227102;23;20043;-93
2022/03/07 07:35:27;;;;;;;14.63;10.35;;;;;;;1.16;45.97;101376.56;6232352;23;20017;-94
2022/03/07 07:37:57;;;;;;;16.73;11.77;;;;;;;1.25;46.52;101392.31;6228273;23;20016;-93
2022/03/07 07:44:32;;;;;;;14.95;10.60;;;;;;;1.13;45.56;101329.59;6109037;23;20057;-94
2022/03/07 07:47:02;;;;;;;13.23;10.35;;;;;;;1.20;45.26;101324.44;6157848;23;20039;-94
2022/03/07 07:49:39;;;;;;;15.95;10.75;;;;;;;1.30;45.52;101330.56;6229344;23;20511;-94
2022/03/07 07:52:18;;;;;;;15.15;11.55;;;;;;;1.57;45.20;101355.97;6224039;23;20099;-94
2022/03/07 07:55:25;;;;;;;14.95;11.57;;;;;;;1.86;45.06;101392.66;6182958;23;20192;-94
2022/03/07 07:58:22;;;;;;;14.25;10.40;;;;;;;1.63;44.41;101332.47;6225819;23;20417;-92
2022/03/07 08:01:34;;;;;;;;;;;;;;;2.05;44.73;101404.91;6218238;23;20349;-93
2022/03/07 08:04:12;;;;;;;15.20;9.70;;;;;;;1.89;44.04;101367.41;6225079;23;19916;-96
2022/03/07 08:06:42;;;;;;;12.10;9.48;;;;;;;1.84;43.98;101343.03;6224448;23;20020;-95
2022/03/07 08:09:42;;;;;;;14.93;10.38;;;;;;;2.07;44.38;101371.81;6218883;23;20055;-95
2022/03/07 08:12:20;;;;;;;14.55;9.90;;;;;;;2.40;44.03;101405.00;6212925;23;20036;-94
2022/03/07 08:15:16;;;;;;;;;;;;;;;;;;;;;
2022/03/07 08:18:11;;;;;;;12.98;9.98;;;;;;;2.53;43.31;101404.16;6218381;23;20298;-96
2022/03/07 08:21:02;;;;;;;12.02;9.50;;;;;;;2.25;44.59;101369.25;6216261;23;20095;-94
2022/03/07 08:23:33;;;;;;;;;;;;;;;2.54;43.57;101419.00;6215155;23;20017;-95
2022/03/07 08:27:08;;;;;;;12.50;8.93;;;;;;;2.67;44.00;101412.94;6216760;23;19991;-95
2022/03/07 08:29:42;;;;;;;13.02;9.55;;;;;;;2.56;43.19;101374.53;6215162;23;20100;-94
2022/03/07 08:32:12;;;;;;;14.00;9.65;;;;;;;2.49;43.09;101354.50;6211944;23;20075;-95
2022/03/07 08:34:47;;;;;;;13.88;9.50;;;;;;;2.76;43.77;101351.91;6215440;23;20075;-94
2022/03/07 08:37:32;;;;;;;11.93;8.95;;;;;;;2.93;44.39;101360.63;6216233;23;20016;-95
2022/03/07 08:40:04;;;;;;;13.05;8.32;;;;;;;3.17;42.81;101371.06;6216481;23;20013;-94
2022/03/07 08:42:52;;;;;;;;;;;;;;;;;;;;;
2022/03/07 08:45:51;;;;;;;11.13;8.60;;;;;;;3.50;41.22;101400.69;6190223;23;20317;-94
2022/03/07 08:48:42;;;;;;;11.00;8.30;;;;;;;3.63;41.52;101431.19;6215529;23;20043;-94
2022/03/07 08:51:12;;;;;;;10.25;8.68;;;;;;;3.62;40.72;101408.50;6220120;23;20017;-93
2022/03/07 08:53:39;;;;;;;9.93;7.73;;;;;;;3.65;40.93;101371.81;6216231;23;20419;-94
2022/03/07 08:56:15;;;;;;;9.13;8.23;;;;;;;3.92;40.20;101376.13;6218403;23;20016;-94
2022/03/07 08:58:58;;;;;;;9.07;7.97;;;;;;;4.44;39.50;101413.41;6217866;23;20067;-94
2022/03/07 09:01:37;;;;;;;10.07;8.00;;;;;;;4.57;38.38;101383.59;6214934;23;20313;-95
2022/03/07 09:04:42;;;;;;;11.57;7.30;;;;;;;4.75;38.65;101345.00;6216215;23;20071;-94
2022/03/07 09:07:31;;;;;;;8.98;7.63;;;;;;;5.54;37.18;101373.13;6214071;23;20023;-94
2022/03/07 09:10:02;;;;;;;8.68;7.78;;;;;;;6.24;35.44;101402.13;6215816;23;20009;-94
2022/03/07 09:12:44;;;;;;;8.20;7.38;;;;;;;6.59;36.07;101399.00;6215069;23;20112;-95
2022/03/07 09:15:25;;;;;;;9.52;8.18;;;;;;;6.84;34.69;101369.66;6216984;23;20053;-94
2022/03/07 09:18:04;;;;;;;8.82;7.93;;;;;;;6.11;34.98;101342.69;6215005;23;20332;-95
2022/03/07 09:20:35;;;;;;;8.25;7.45;;;;;;;6.10;35.45;101403.19;6218119;23;20068;-94
2022/03/07 09:23:14;;;;;;;10.90;8.80;;;;;;;5.77;35.54;101330.84;6217803;23;20008;-95
2022/03/07 09:26:06;;;;;;;9.93;7.60;;;;;;;6.60;34.15;101331.44;6126399;23;20018;-95
2022/03/07 09:28:37;;;;;;;8.45;7.53;;;;;;;7.20;33.45;101340.06;6129644;23;20069;-95
2022/03/07 09:31:12;;;;;;;10.18;8.00;;;;;;;7.73;32.67;101352.19;6107937;23;20164;-95
2022/03/07 09:33:53;;;;;;;9.77;7.80;;;;;;;8.09;32.71;101405.97;6132503;23;20398;-95
2022/03/07 09:36:35;;;;;;;9.68;8.18;;;;;;;8.05;33.21;101391.09;6136409;23;20026;-96
2022/03/07 09:39:09;;;;;;;10.13;7.60;;;;;;;7.34;32.70;101337.19;6135650;23;20006;-96
2022/03/07 09:42:10;;;;;;;9.75;7.60;;;;;;;7.57;32.41;101368.34;6204845;23;20025;-94
2022/03/07 09:44:52;;;;;;;9.13;7.38;;;;;;;7.83;31.95;101387.19;6232420;23;20024;-94
2022/03/07 09:47:38;;;;;;;;;;;;;;;;;;;;;
2022/03/07 09:50:20;;;;;;;8.85;6.90;;;;;;;8.33;31.75;101349.22;6215270;23;20017;-95
2022/03/07 09:53:05;;;;;;;8.45;7.20;;;;;;;8.68;31.07;101340.47;6235293;23;20088;-95
2022/03/07 09:55:41;;;;;;;8.10;7.03;;;;;;;8.95;29.89;101370.63;6232232;23;20012;-91
2022/03/07 09:59:07;;;;;;;7.57;6.88;;;;;;;9.47;29.66;101393.94;6229264;23;20083;-91
2022/03/07 10:03:02;;;;;;;7.43;6.40;;;;;;;9.90;29.04;101395.41;6225247;23;20031;-92
2022/03/07 10:06:18;;;;;;;7.75;6.75;;;;;;;10.69;27.23;101385.13;6117038;23;20021;-92
2022/03/07 10:09:01;;;;;;;9.63;6.70;;;;;;;11.00;26.71;101376.19;6157282;23;20037;-94
2022/03/07 10:12:07;;;;;;;9.68;6.63;;;;;;;10.65;26.55;101343.75;6158333;23;20048;-94
2022/03/07 10:14:53;;;;;;;7.40;6.00;;;;;;;10.08;27.08;101341.94;6155591;23;20030;-93
2022/03/07 10:21:23;;;;;;;7.60;6.20;;;;;;;10.15;26.88;101353.22;6154023;23;20116;-95
2022/03/07 10:23:59;;;;;;;7.30;6.47;;;;;;;10.33;27.43;101384.47;6151686;23;20027;-93
2022/03/07 10:26:37;;;;;;;8.00;5.78;;;;;;;9.77;27.94;101326.09;6132303;23;20013;-94
2022/03/07 10:29:18;;;;;;;6.80;6.20;;;;;;;10.23;27.85;101372.41;6143556;23;20169;-93
2022/03/07 10:32:04;;;;;;;7.90;6.90;;;;;;;10.05;27.86;101360.56;6132294;23;20599;-93
2022/03/07 10:34:52;;;;;;;7.40;6.32;;;;;;;9.87;28.07;101336.44;6156711;23;20069;-94
2022/03/07 10:37:34;;;;;;;6.95;6.30;;;;;;;9.91;27.98;101346.03;6198571;23;20091;-94
2022/03/07 10:40:02;;;;;;;;;;;;;;;9.77;28.51;101394.88;6220998;23;20019;-92
2022/03/07 10:42:35;;;;;;;7.20;6.50;;;;;;;9.84;28.01;101343.53;6216689;23;19926;-93
2022/03/07 10:45:28;;;;;;;6.63;5.18;;;;;;;10.81;27.30;101387.38;6214564;23;20495;-93
2022/03/07 10:48:24;;;;;;;8.90;6.47;;;;;;;10.47;27.72;101323.13;6214063;23;20021;-94
2022/03/07 10:53:52;;;;;;;6.70;6.05;;;;;;;11.30;26.79;101353.06;6213080;23;19912;-94
2022/03/07 10:56:30;;;;;;;7.93;6.43;;;;;;;11.06;26.02;101320.28;6213919;23;20021;-93
2022/03/07 10:58:58;;;;;;;7.50;6.70;;;;;;;10.70;26.92;101330.34;6215016;23;20012;-92
2022/03/07 11:01:42;;;;;;;;;;;;;;;11.43;26.37;101388.84;6193685;23;20319;-94
2022/03/07 11:04:29;;;;;;;7.35;6.60;;;;;;;11.53;25.75;101331.88;6213387;23;19912;-93
2022/03/07 11:07:09;;;;;;;7.70;6.13;;;;;;;11.82;25.77;101352.06;6214085;23;20075;-94
2022/03/07 11:09:41;;;;;;;8.88;6.55;;;;;;;11.20;26.58;101374.56;6214265;23;20047;-93
2022/03/07 11:12:24;;;;;;;6.63;5.93;;;;;;;10.61;27.08;101371.22;6212197;23;20013;-94
2022/03/07 11:15:06;;;;;;;;;;;;;;;;;;;;;
2022/03/07 11:17:51;;;;;;;7.07;6.30;;;;;;;11.33;26.91;101348.53;6206282;23;20091;-93
2022/03/07 11:20:26;;;;;;;6.38;5.78;;;;;;;11.69;26.29;101346.31;6214035;23;20100;-92
2022/03/07 11:22:53;;;;;;;7.15;6.45;;;;;;;10.81;26.80;101329.09;6210613;23;20076;-93
2022/03/07 11:25:25;;;;;;;10.13;6.85;;;;;;;10.71;27.58;101364.72;6213492;23;20016;-93
2022/03/07 11:27:58;;;;;;;6.95;6.22;;;;;;;11.50;26.92;101353.19;6211037;23;20047;-93
2022/03/07 11:30:53;;;;;;;7.35;6.57;;;;;;;12.34;25.36;101320.88;6168164;23;20021;-94
2022/03/07 11:33:36;;;;;;;8.70;6.82;;;;;;;12.21;25.24;101342.63;6218429;23;20020;-93
2022/03/07 11:36:19;;;;;;;6.97;6.38;;;;;;;11.91;25.36;101314.59;6217261;23;20017;-94
2022/03/07 11:42:19;;;;;;;8.60;7.80;;;;;;;12.78;24.77;101357.16;6216150;23;20043;-95
2022/03/07 11:45:05;;;;;;;8.85;7.07;;;;;;;12.05;25.67;101299.00;6219070;23;20020;-94
2022/03/07 11:47:38;;;;;;;8.00;7.20;;;;;;;11.90;25.81;101364.16;6218446;23;20012;-94
2022/03/07 11:50:18;;;;;;;7.40;6.68;;;;;;;11.43;26.73;101334.00;6215499;23;20103;-94
2022/03/07 11:53:05;;;;;;;7.75;7.05;;;;;;;10.71;27.27;101285.25;6214725;23;20023;-94
2022/03/07 11:55:50;;;;;;;9.60;7.30;;;;;;;10.60;27.54;101319.19;6216668;23;20015;-93
2022/03/07 11:58:35;;;;;;;7.95;7.22;;;;;;;10.23;28.40;101326.56;6219079;23;20115;-93
2022/03/07 12:01:26;;;;;;;9.35;8.05;;;;;;;9.69;28.64;101301.66;6217076;23;20507;-95
2022/03/07 12:04:15;;;;;;;9.13;8.23;;;;;;;8.86;29.86;101274.88;6219381;23;20087;-95
2022/03/07 12:07:05;;;;;;;9.75;7.55;;;;;;;7.91;31.75;101308.78;6219627;23;20013;-94
2022/03/07 12:09:40;;;;;;;10.48;8.68;;;;;;;7.35;33.69;101329.25;6199632;23;20017;-94
2022/03/07 12:12:59;;;;;;;9.80;8.80;;;;;;;7.06;33.93;101288.53;6214887;23;20099;-94
2022/03/07 12:15:49;;;;;;;10.10;8.50;;;;;;;7.07;33.99;101259.53;6128911;23;20010;-93
2022/03/07 12:18:39;;;;;;;9.90;8.00;;;;;;;7.21;33.27;101273.31;6224201;23;20111;-93
2022/03/07 12:21:41;;;;;;;9.85;8.50;;;;;;;6.88;33.07;101239.72;6232828;23;20029;-95
2022/03/07 12:24:28;;;;;;;9.98;8.32;;;;;;;7.41;32.78;101246.56;6234156;23;20009;-94
2022/03/07 12:27:18;;;;;;;8.07;7.25;;;;;;;8.82;31.30;101291.72;6227357;23;20039;-96
2022/03/07 12:29:53;;;;;;;8.82;7.93;;;;;;;9.55;29.72;101265.94;6226996;23;20023;-95
2022/03/07 12:32:44;;;;;;;;;;;;;;;;;;;;;
2022/03/07 12:35:19;;;;;;;8.48;7.50;;;;;;;12.71;26.27;101246.75;6218886;23;20036;-94
2022/03/07 12:38:04;;;;;;;8.98;7.97;;;;;;;13.87;24.06;101249.53;6221419;23;20016;-94
2022/03/07 12:40:59;;;;;;;;;;;;;;;;;;;;;
2022/03/07 12:43:40;;;;;;;9.27;8.30;;;;;;;14.11;23.96;101258.19;6225661;23;20080;-94
2022/03/07 12:46:16;;;;;;;8.07;7.28;;;;;;;14.42;23.24;101231.81;6220981;23;20044;-96
2022/03/07 12:48:50;;;;;;;7.70;6.90;;;;;;;14.66;22.56;101235.03;6236663;23;20015;-94
2022/03/07 12:51:37;;;;;;;7.45;6.78;;;;;;;15.35;21.24;101238.53;6221766;23;20061;-94
2022/03/07 12:54:37;;;;;;;;;;;;;;;;;;;;;
2022/03/07 12:57:26;;;;;;;6.15;5.57;;;;;;;16.04;20.97;101262.34;6212169;23;20395;-93
2022/03/07 13:00:06;;;;;;;7.07;6.45;;;;;;;15.65;20.90;101229.81;6219524;23;20020;-94
2022/03/07 13:02:43;;;;;;;6.95;6.32;;;;;;;15.80;20.83;101204.94;6218066;23;20017;-95
2022/03/07 13:05:26;;;;;;;7.63;6.53;;;;;;;16.00;21.01;101235.91;6222835;23;20017;-95
2022/03/07 13:08:35;;;;;;;;;;;;;;;;;;;;;
2022/03/07 13:12:05;;;;;;;7.05;6.35;;;;;;;15.85;20.57;101218.06;6205637;23;20024;-96
2022/03/07 13:15:12;;;;;;;6.47;5.88;;;;;;;15.86;20.55;101198.41;6202744;23;20096;-95
2022/03/07 13:17:46;;;;;;;7.07;6.40;;;;;;;16.36;20.46;101223.13;6220055;23;20020;-95
2022/03/07 13:20:31;;;;;;;7.05;6.07;;;;;;;16.48;19.71;101213.50;6220335;23;20044;-95
2022/03/07 13:23:10;;;;;;;6.50;5.75;;;;;;;16.87;19.56;101204.09;6221494;23;20028;-94
2022/03/07 13:25:53;;;;;;;7.15;6.28;;;;;;;17.08;19.65;101165.34;6230474;23;20016;-95
2022/03/07 13:28:35;;;;;;;6.53;5.93;;;;;;;17.76;18.83;101203.88;6230029;23;20017;-95
2022/03/07 13:31:49;;;;;;;6.32;5.75;;;;;;;18.55;17.84;101190.59;6228119;23;20042;-95
2022/03/07 13:35:54;;;;;;;;;;;;;;;;;;;;;
2022/03/07 13:38:41;;;;;;;6.20;5.65;;;;;;;18.68;18.04;101189.78;6125244;23;20032;-95
2022/03/07 13:45:38;;;;;;;6.25;5.63;;;;;;;17.58;18.58;101169.34;6199775;23;20090;-94
2022/03/07 13:56:25;;;;;;;7.63;5.93;;;;;;;13.32;23.15;101198.88;6063224;23;20035;-94
2022/03/07 14:07:55;;;;;;;10.27;6.88;;;;;;;16.52;20.45;101185.66;6066613;23;20026;-95
2022/03/07 14:55:12;;;;;;;4.82;4.43;;;;;;;11.88;23.95;101113.88;5581757;22;15884339;-94
2022/03/07 14:58:54;;;;;;;5.55;5.05;;;;;;;10.61;25.73;101124.03;6293883;22;20752;-96
2022/03/07 15:02:05;;;;;;;5.82;5.22;;;;;;;10.18;26.56;101173.16;6269448;22;20020;-95
2022/03/07 15:05:18;;;;;;;5.50;4.68;;;;;;;9.52;27.68;101166.44;6113190;23;20025;-94
2022/03/07 15:07:53;;;;;;;5.28;4.22;;;;;;;8.64;28.23;101110.88;6112554;23;20038;-93
2022/03/07 15:10:39;;;;;;;5.60;4.68;;;;;;;8.59;29.13;101163.81;6085321;23;20073;-95
2022/03/07 15:13:49;;;;;;;5.53;4.80;;;;;;;8.44;29.77;101167.72;6075372;23;20049;-93
2022/03/07 15:16:18;;;;;;;7.03;4.97;;;;;;;8.13;29.82;101172.00;6100708;23;20029;-93
2022/03/07 15:18:51;;;;;;;6.82;5.15;;;;;;;7.74;30.26;101161.47;6107837;23;20014;-93
2022/03/07 15:21:27;;;;;;;9.23;4.95;;;;;;;7.31;30.55;101106.25;6106470;23;20057;-94
2022/03/07 15:24:14;;;;;;;5.95;4.72;;;;;;;7.28;31.10;101131.78;6232327;23;20043;-95
2022/03/07 15:27:23;;;;;;;7.47;4.90;;;;;;;7.21;31.68;101157.41;6235564;23;20012;-91
2022/03/07 16:05:00;;;;;;;10.43;5.20;;;;;;;6.08;33.78;101092.94;6126759;23;20032;-92
2022/03/07 16:10:23;;;;;;;5.65;4.93;;;;;;;5.83;34.64;101094.19;6243419;22;20039;-92
2022/03/07 16:12:53;;;;;;;8.52;5.15;;;;;;;5.69;34.48;101068.13;6277306;22;20011;-92
2022/03/07 16:16:22;;;;;;;;;;;;;;;6.02;34.81;101128.97;6254948;22;20121;-93
2022/03/07 16:18:58;;;;;;;6.15;4.78;;;;;;;5.80;34.83;101103.00;6277784;22;19919;-93
2022/03/07 16:21:59;;;;;;;7.43;4.82;;;;;;;5.90;34.89;101123.03;6255329;22;20030;-95
2022/03/07 16:25:24;;;;;;;7.10;4.28;;;;;;;5.84;34.50;101111.69;6215592;23;20029;-92
2022/03/07 16:28:06;;;;;;;6.63;5.22;;;;;;;5.99;34.29;101141.25;6182579;23;20461;-90
2022/03/07 16:32:03;;;;;;;6.70;4.60;;;;;;;5.90;34.10;101136.16;6123553;23;20105;-92
2022/03/07 16:42:20;;;;;;;6.13;4.55;;;;;;;5.71;34.93;101145.19;5955587;24;20052;-94
2022/03/07 16:45:06;;;;;;;8.38;4.57;;;;;;;5.42;34.85;101102.72;5953659;24;20021;-92
2022/03/07 16:48:00;;;;;;;6.22;4.95;;;;;;;5.29;34.79;101088.91;5991215;22;20021;-92
2022/03/07 16:51:13;;;;;;;6.35;4.50;;;;;;;5.23;35.48;101087.22;6166101;23;20095;-92
2022/03/07 16:54:17;;;;;;;9.32;5.93;;;;;;;5.24;35.13;101109.97;6202498;23;20459;-93
2022/03/07 16:56:48;;;;;;;7.18;5.15;;;;;;;5.09;35.59;101099.66;6213962;23;20024;-92
2022/03/07 16:59:36;;;;;;;10.65;5.85;;;;;;;4.99;35.95;101091.94;6204616;23;20433;-93
2022/03/07 17:02:56;;;;;;;8.65;5.80;;;;;;;4.92;36.44;101105.13;6218751;23;20020;-95
2022/03/07 17:13:47;;;;;;;7.53;5.07;;;;;;;5.02;36.47;101140.03;6020714;23;20515;-95
2022/03/07 17:16:51;;;;;;;6.25;5.13;;;;;;;4.71;37.28;101121.16;6046764;23;20043;-95
2022/03/07 17:20:05;;;;;;;;;;;;;;;;;;;;;
2022/03/07 17:26:22;;;;;;;9.63;5.72;;;;;;;4.65;37.35;101150.06;5977785;24;20088;-91
2022/03/07 17:33:28;;;;;;;;;;;;;;;;;;;;;
2022/03/07 17:36:15;;;;;;;7.90;5.80;;;;;;;4.55;37.78;101167.69;6048003;23;20024;-94
2022/03/07 17:39:36;;;;;;;7.70;5.80;;;;;;;4.20;37.87;101120.81;6151664;23;21006;-95
2022/03/07 17:42:19;;;;;;;10.38;6.65;;;;;;;4.53;38.18;101193.03;6034164;23;20073;-93
2022/03/07 17:44:54;;;;;;;13.52;6.88;;;;;;;4.31;38.95;101165.28;6036285;23;20019;-94
2022/03/07 17:47:28;;;;;;;9.40;6.43;;;;;;;4.12;38.34;101146.22;6035741;23;20766;-93
2022/03/07 17:49:55;;;;;;;10.52;6.53;;;;;;;4.46;38.85;101203.59;6028446;23;20027;-95
2022/03/07 17:52:32;;;;;;;9.13;6.43;;;;;;;4.06;39.01;101142.78;6010654;23;20440;-93
2022/03/07 17:58:32;;;;;;;10.10;6.28;;;;;;;4.26;39.15;101193.28;5947366;24;20103;-93
2022/03/07 18:01:38;;;;;;;9.32;6.63;;;;;;;3.96;39.58;101175.16;6004585;23;20024;-93
2022/03/07 18:04:10;;;;;;;10.73;6.95;;;;;;;3.74;39.72;101149.16;6008101;23;20023;-94
2022/03/07 18:06:53;;;;;;;10.35;7.07;;;;;;;3.82;40.29;101170.91;6004210;23;20020;-94
2022/03/07 18:09:29;;;;;;;13.48;7.72;;;;;;;3.72;40.72;101152.66;6009214;23;20019;-93
2022/03/07 18:12:20;;;;;;;;;;;;;;;4.10;39.87;101207.38;6007169;23;20049;-93
2022/03/07 18:14:51;;;;;;;10.75;7.05;;;;;;;4.09;39.84;101210.91;6006432;23;19918;-93
2022/03/07 18:17:20;;;;;;;13.02;6.90;;;;;;;3.88;39.93;101183.09;6085657;23;20021;-93
2022/03/07 18:19:49;;;;;;;9.48;6.38;;;;;;;3.74;39.85;101153.53;6164039;23;20012;-95
2022/03/07 18:22:26;;;;;;;8.43;6.47;;;;;;;3.81;39.84;101177.03;6189619;23;20078;-93
2022/03/07 18:25:16;;;;;;;10.20;6.63;;;;;;;3.92;40.07;101197.06;6216582;23;20371;-93
2022/03/07 18:27:45;;;;;;;9.18;7.03;;;;;;;3.69;39.96;101173.63;6210546;23;20024;-93
2022/03/07 18:30:24;;;;;;;9.15;6.63;;;;;;;3.78;41.03;101194.50;6215025;23;20058;-95
2022/03/07 18:32:55;;;;;;;10.52;7.03;;;;;;;3.52;41.58;101163.25;6188862;23;20024;-94
2022/03/07 18:35:28;;;;;;;11.27;7.05;;;;;;;3.46;41.66;101166.75;6217032;23;20019;-94
2022/03/07 18:37:56;;;;;;;9.35;6.53;;;;;;;3.63;41.75;101207.69;6218252;23;20726;-93
2022/03/07 18:40:29;;;;;;;12.60;6.95;;;;;;;3.68;41.44;101217.28;6218667;23;20016;-91
2022/03/07 18:43:04;;;;;;;9.07;6.72;;;;;;;3.63;41.74;101210.31;6214874;23;20008;-90
2022/03/07 18:46:23;;;;;;;9.38;7.20;;;;;;;3.46;41.40;101189.50;6198041;23;20027;-92
2022/03/07 18:48:54;;;;;;;10.75;7.20;;;;;;;3.29;41.56;101173.00;6233384;23;20028;-93
2022/03/07 18:51:30;;;;;;;9.80;6.70;;;;;;;3.62;41.51;101235.63;6245875;23;20094;-90
2022/03/07 18:54:08;;;;;;;10.38;7.18;;;;;;;3.24;41.57;101159.91;6221336;23;20039;-91
2022/03/07 18:56:49;;;;;;;10.60;6.93;;;;;;;3.37;41.83;101192.13;6233381;23;20523;-90
2022/03/07 19:03:37;;;;;;;;;;;;;;;;;;;;;
2022/03/07 19:06:46;;;;;;;12.40;7.85;;;;;;;3.24;41.57;101180.84;6099331;23;20136;-91
2022/03/07 19:10:18;;;;;;;11.73;7.07;;;;;;;3.43;42.78;101219.16;6025792;23;20046;-91
2022/03/07 19:13:40;;;;;;;9.57;6.65;;;;;;;3.03;42.74;101175.69;6041948;23;20091;-94
2022/03/07 19:16:31;;;;;;;11.30;7.72;;;;;;;3.12;42.79;101199.25;6024092;23;20027;-92
2022/03/07 19:19:15;;;;;;;12.27;8.75;;;;;;;3.05;42.82;101198.38;6069556;23;20022;-91
2022/03/07 19:21:58;;;;;;;12.40;8.38;;;;;;;3.05;44.44;101211.47;6128268;23;20029;-91
2022/03/07 19:25:17;;;;;;;11.90;7.68;;;;;;;3.11;43.96;101240.22;6126412;23;20037;-93
2022/03/07 19:28:24;;;;;;;11.50;7.40;;;;;;;3.10;44.30;101246.34;6127842;23;20029;-92
2022/03/07 19:31:19;;;;;;;14.43;8.77;;;;;;;3.08;44.44;101255.94;6115028;23;20243;-92
2022/03/07 19:33:47;;;;;;;14.30;8.35;;;;;;;3.06;44.91;101247.22;6123408;23;20013;-92
2022/03/07 19:37:23;;;;;;;12.07;8.52;;;;;;;2.83;45.56;101225.50;6169498;23;20012;-92
2022/03/07 19:39:54;;;;;;;12.98;9.15;;;;;;;2.83;45.47;101229.84;6243061;23;20023;-91
2022/03/07 19:42:35;;;;;;;14.18;8.70;;;;;;;2.54;45.72;101201.09;6245624;23;20017;-92
2022/03/07 19:45:51;;;;;;;15.38;10.40;;;;;;;2.67;46.47;101244.69;6246943;23;20066;-91
2022/03/07 19:48:23;;;;;;;15.93;9.90;;;;;;;2.60;46.56;101242.94;6250712;22;20028;-90
2022/03/07 19:52:12;;;;;;;15.32;9.32;;;;;;;2.33;46.76;101205.50;6249353;23;20027;-91
2022/03/07 19:55:31;;;;;;;15.85;9.55;;;;;;;2.50;47.27;101249.06;6249310;23;20013;-91
2022/03/07 19:59:05;;;;;;;15.13;9.55;;;;;;;2.38;47.96;101248.19;6185868;23;20020;-92
2022/03/07 20:01:53;;;;;;;14.00;9.18;;;;;;;1.95;48.01;101189.81;6230342;23;20074;-91
2022/03/07 20:04:43;;;;;;;19.15;9.93;;;;;;;2.23;48.07;101242.06;6254612;23;20646;-91
2022/03/07 20:07:45;;;;;;;17.92;9.88;;;;;;;2.25;48.43;101256.88;6251845;23;20012;-91
2022/03/07 20:13:44;;;;;;;15.88;10.13;;;;;;;1.86;48.63;101196.78;6251539;23;20032;-91
2022/03/07 20:17:09;;;;;;;;;;;;;;;;;;;;;
2022/03/07 20:20:15;;;;;;;16.38;9.77;;;;;;;2.07;48.98;101246.41;6168688;23;20038;-91
2022/03/07 20:23:07;;;;;;;21.95;11.18;;;;;;;2.06;48.98;101250.75;6156596;23;20528;-92
2022/03/07 20:25:59;;;;;;;14.90;10.20;;;;;;;1.72;49.43;101202.84;6149445;23;20064;-92
2022/03/07 20:28:29;;;;;;;16.70;10.43;;;;;;;1.90;49.55;101229.84;6155893;23;20032;-91
2022/03/07 20:31:07;;;;;;;15.68;10.18;;;;;;;2.05;49.69;101262.09;6155282;23;20036;-94
2022/03/07 20:33:58;;;;;;;15.27;10.15;;;;;;;1.65;48.90;101190.66;6138987;23;20816;-91
2022/03/07 20:40:43;;;;;;;19.10;10.73;;;;;;;2.00;49.00;101255.13;6131864;23;20472;-93
2022/03/07 20:43:31;;;;;;;22.63;12.85;;;;;;;1.62;50.27;101197.59;6155068;23;20334;-91
2022/03/07 20:47:02;;;;;;;22.75;13.13;;;;;;;1.89;50.60;101256.88;6065838;23;20525;-91
2022/03/07 20:49:57;;;;;;;;;;;;;;;;;;;;;
2022/03/07 20:52:43;;;;;;;19.85;11.57;;;;;;;1.17;52.75;101188.75;6066026;23;20030;-92
2022/03/07 20:55:24;;;;;;;16.95;10.70;;;;;;;1.20;53.48;101232.25;6129701;23;20021;-93
2022/03/07 20:58:11;;;;;;;;;;;;;;;;;;;;;
2022/03/07 21:00:59;;;;;;;19.45;10.50;;;;;;;0.78;54.71;101212.94;6054144;23;20025;-92
2022/03/07 21:03:41;;;;;;;18.48;11.00;;;;;;;0.92;55.25;101244.28;6152974;23;20056;-91
2022/03/07 21:06:26;;;;;;;18.20;9.95;;;;;;;0.71;55.38;101211.13;6153780;23;20014;-92
2022/03/07 21:08:57;;;;;;;17.20;10.55;;;;;;;0.83;55.89;101245.09;6154366;23;20013;-91
2022/03/07 21:11:33;;;;;;;17.10;10.50;;;;;;;0.82;56.17;101238.13;6153414;23;20457;-93
2022/03/07 21:14:06;;;;;;;19.05;10.07;;;;;;;0.76;55.90;101238.13;6155639;23;20059;-94
2022/03/07 21:16:36;;;;;;;15.00;10.02;;;;;;;1.00;56.02;101292.13;6155756;23;20101;-91
2022/03/07 21:23:08;;;;;;;21.50;11.32;;;;;;;0.85;56.09;101263.34;6185995;23;20076;-94
2022/03/07 21:25:41;;;;;;;17.35;10.85;;;;;;;0.72;56.13;101238.06;6232875;23;20500;-94
2022/03/07 21:31:49;;;;;;;16.05;11.00;;;;;;;0.90;55.24;101259.06;6216278;23;20047;-92
2022/03/07 21:38:20;;;;;;;19.02;11.05;;;;;;;0.98;55.18;101281.69;6216687;23;20072;-92
2022/03/07 21:41:27;;;;;;;13.45;8.45;;;;;;;0.59;55.58;101226.69;6196296;23;20012;-93
2022/03/07 21:44:12;;;;;;;15.98;11.25;;;;;;;0.76;55.54;101261.56;6127527;23;20069;-90
2022/03/07 21:47:12;;;;;;;18.33;11.02;;;;;;;0.85;55.88;101279.88;6108109;23;20045;-91
2022/03/07 21:50:53;;;;;;;;;;;;;;;;;;;;;
2022/03/07 21:54:03;;;;;;;18.23;11.25;;;;;;;0.69;56.04;101257.16;6117849;23;20174;-93
2022/03/07 21:56:45;;;;;;;17.65;11.38;;;;;;;0.74;55.75;101271.13;6168162;23;20049;-95
2022/03/07 21:59:51;;;;;;;;;;;;;;;;;;;;;
2022/03/07 22:02:48;;;;;;;13.80;9.82;;;;;;;0.48;55.91;101247.44;6057676;23;20098;-95
2022/03/07 22:06:39;;;;;;;;;;;;;;;;;;;;;
2022/03/07 22:09:39;;;;;;;17.95;11.70;;;;;;;0.34;55.89;101230.84;6057369;23;20045;-95
2022/03/07 22:12:26;;;;;;;20.35;11.40;;;;;;;0.51;56.43;101257.91;6062611;23;20019;-92
2022/03/07 22:15:23;;;;;;;16.15;10.95;;;;;;;0.57;57.00;101273.59;6097747;23;20066;-93
2022/03/07 22:17:54;;;;;;;16.77;10.38;;;;;;;0.32;56.42;101238.63;6109782;23;20046;-94
2022/03/07 22:20:39;;;;;;;14.63;9.85;;;;;;;0.25;56.34;101226.44;6047673;23;20015;-94
2022/03/07 22:26:54;;;;;;;17.65;10.48;;;;;;;0.45;55.70;101249.19;6091037;23;20061;-93
2022/03/07 22:29:28;;;;;;;14.55;10.23;;;;;;;0.67;55.93;101287.56;6156138;23;20020;-94
